sensor_id;sensor_type;location;lat;lon;timestamp;temperature;humidity
1594;DHT22;790;47.000;16.084;2023-04-25T00:00:44;12.00;99.90
1594;DHT22;790;47.000;16.084;2023-04-25T00:03:11;12.00;99.90
1594;DHT22;790;47.000;16.084;2023-04-25T00:05:41;12.00;99.90
1594;DHT22;790;47.000;16.084;2023-04-25T00:08:08;12.00;99.90
1594;DHT22;790;47.000;16.084;2023-04-25T00:10:36;11.90;99.90
1594;DHT22;790;47.000;16.084;2023-04-25T00:13:03;11.90;99.90
1594;DHT22;790;47.000;16.084;2023-04-25T00:15:30;11.80;99.90
1594;DHT22;790;47.000;16.084;2023-04-25T00:17:58;11.90;99.90
1594;DHT22;790;47.000;16.084;2023-04-25T00:20:25;11.80;99.90
1594;DHT22;790;47.000;16.084;2023-04-25T00:22:53;11.80;99.90
1594;DHT22;790;47.000;16.084;2023-04-25T00:25:21;11.80;99.90
1594;DHT22;790;47.000;16.084;2023-04-25T00:27:49;11.80;99.90
1594;DHT22;790;47.000;16.084;2023-04-25T00:30:16;11.80;99.90
1594;DHT22;790;47.000;16.084;2023-04-25T00:32:43;11.80;99.90
1594;DHT22;790;47.000;16.084;2023-04-25T00:35:10;11.80;99.90
1594;DHT22;790;47.000;16.084;2023-04-25T00:37:37;11.80;99.90
1594;DHT22;790;47.000;16.084;2023-04-25T00:40:07;11.70;99.90
1594;DHT22;790;47.000;16.084;2023-04-25T00:42:35;11.60;99.90
1594;DHT22;790;47.000;16.084;2023-04-25T00:45:05;11.60;99.90
1594;DHT22;790;47.000;16.084;2023-04-25T00:47:33;11.70;99.90
1594;DHT22;790;47.000;16.084;2023-04-25T00:50:01;11.60;99.90
1594;DHT22;790;47.000;16.084;2023-04-25T00:52:28;11.60;99.90
1594;DHT22;790;47.000;16.084;2023-04-25T00:54:55;11.50;99.90
1594;DHT22;790;47.000;16.084;2023-04-25T00:57:24;11.60;99.90
1594;DHT22;790;47.000;16.084;2023-04-25T00:59:52;11.60;99.90
1594;DHT22;790;47.000;16.084;2023-04-25T01:02:20;11.70;99.90
1594;DHT22;790;47.000;16.084;2023-04-25T01:04:48;11.70;99.90
1594;DHT22;790;47.000;16.084;2023-04-25T01:07:15;11.70;99.90
1594;DHT22;790;47.000;16.084;2023-04-25T01:09:42;11.60;99.90
1594;DHT22;790;47.000;16.084;2023-04-25T01:12:10;11.70;99.90
1594;DHT22;790;47.000;16.084;2023-04-25T01:14:39;11.70;99.90
1594;DHT22;790;47.000;16.084;2023-04-25T01:17:06;11.80;99.90
1594;DHT22;790;47.000;16.084;2023-04-25T01:19:34;11.70;99.90
1594;DHT22;790;47.000;16.084;2023-04-25T01:22:03;11.80;99.90
1594;DHT22;790;47.000;16.084;2023-04-25T01:24:31;11.70;99.90
1594;DHT22;790;47.000;16.084;2023-04-25T01:27:00;11.70;99.90
1594;DHT22;790;47.000;16.084;2023-04-25T01:29:28;11.50;99.90
1594;DHT22;790;47.000;16.084;2023-04-25T01:31:55;11.60;99.90
1594;DHT22;790;47.000;16.084;2023-04-25T01:34:24;11.60;99.90
1594;DHT22;790;47.000;16.084;2023-04-25T01:36:51;11.60;99.90
1594;DHT22;790;47.000;16.084;2023-04-25T01:39:21;11.50;99.90
1594;DHT22;790;47.000;16.084;2023-04-25T01:41:48;11.50;99.90
1594;DHT22;790;47.000;16.084;2023-04-25T01:44:16;11.50;99.90
1594;DHT22;790;47.000;16.084;2023-04-25T01:46:43;11.50;99.90
1594;DHT22;790;47.000;16.084;2023-04-25T01:49:11;11.50;99.90
1594;DHT22;790;47.000;16.084;2023-04-25T01:51:38;11.40;99.90
1594;DHT22;790;47.000;16.084;2023-04-25T01:54:05;11.40;99.90
1594;DHT22;790;47.000;16.084;2023-04-25T01:56:37;11.40;99.90
1594;DHT22;790;47.000;16.084;2023-04-25T01:59:04;11.30;99.90
1594;DHT22;790;47.000;16.084;2023-04-25T02:01:31;11.40;99.90
1594;DHT22;790;47.000;16.084;2023-04-25T02:03:58;11.30;99.90
1594;DHT22;790;47.000;16.084;2023-04-25T02:06:25;11.30;99.90
1594;DHT22;790;47.000;16.084;2023-04-25T02:08:53;11.40;99.90
1594;DHT22;790;47.000;16.084;2023-04-25T02:11:20;11.40;99.90
1594;DHT22;790;47.000;16.084;2023-04-25T02:13:48;11.30;99.90
1594;DHT22;790;47.000;16.084;2023-04-25T02:16:15;11.30;99.90
1594;DHT22;790;47.000;16.084;2023-04-25T02:18:44;11.30;99.90
1594;DHT22;790;47.000;16.084;2023-04-25T02:21:12;11.30;99.90
1594;DHT22;790;47.000;16.084;2023-04-25T02:23:39;11.30;99.90
1594;DHT22;790;47.000;16.084;2023-04-25T02:26:07;11.30;99.90
1594;DHT22;790;47.000;16.084;2023-04-25T02:28:34;11.30;99.90
1594;DHT22;790;47.000;16.084;2023-04-25T02:31:03;11.30;99.90
1594;DHT22;790;47.000;16.084;2023-04-25T02:33:30;11.20;99.90
1594;DHT22;790;47.000;16.084;2023-04-25T02:35:58;11.30;99.90
1594;DHT22;790;47.000;16.084;2023-04-25T02:38:26;11.30;99.90
1594;DHT22;790;47.000;16.084;2023-04-25T02:40:53;11.30;99.90
1594;DHT22;790;47.000;16.084;2023-04-25T02:43:21;11.20;99.90
1594;DHT22;790;47.000;16.084;2023-04-25T02:45:48;11.20;99.90
1594;DHT22;790;47.000;16.084;2023-04-25T02:48:16;11.20;99.90
1594;DHT22;790;47.000;16.084;2023-04-25T02:50:44;11.20;99.90
1594;DHT22;790;47.000;16.084;2023-04-25T02:53:11;11.10;99.90
1594;DHT22;790;47.000;16.084;2023-04-25T02:55:39;11.00;99.90
1594;DHT22;790;47.000;16.084;2023-04-25T02:58:06;11.00;99.90
1594;DHT22;790;47.000;16.084;2023-04-25T03:00:33;11.00;99.90
1594;DHT22;790;47.000;16.084;2023-04-25T03:03:02;11.00;99.90
1594;DHT22;790;47.000;16.084;2023-04-25T03:05:31;11.00;99.90
1594;DHT22;790;47.000;16.084;2023-04-25T03:07:58;10.90;99.90
1594;DHT22;790;47.000;16.084;2023-04-25T03:10:25;10.80;99.90
1594;DHT22;790;47.000;16.084;2023-04-25T03:12:54;10.70;99.90
1594;DHT22;790;47.000;16.084;2023-04-25T03:15:21;10.60;99.90
1594;DHT22;790;47.000;16.084;2023-04-25T03:17:48;10.50;99.90
1594;DHT22;790;47.000;16.084;2023-04-25T03:20:15;10.50;99.90
1594;DHT22;790;47.000;16.084;2023-04-25T03:22:44;10.30;99.90
1594;DHT22;790;47.000;16.084;2023-04-25T03:25:11;10.20;99.90
1594;DHT22;790;47.000;16.084;2023-04-25T03:27:39;10.10;99.90
1594;DHT22;790;47.000;16.084;2023-04-25T03:30:07;10.00;99.90
1594;DHT22;790;47.000;16.084;2023-04-25T03:32:34;9.90;99.90
1594;DHT22;790;47.000;16.084;2023-04-25T03:35:01;9.90;99.90
1594;DHT22;790;47.000;16.084;2023-04-25T03:37:29;9.90;99.90
1594;DHT22;790;47.000;16.084;2023-04-25T03:39:57;9.90;99.90
1594;DHT22;790;47.000;16.084;2023-04-25T03:42:24;9.70;99.90
1594;DHT22;790;47.000;16.084;2023-04-25T03:44:51;9.60;99.90
1594;DHT22;790;47.000;16.084;2023-04-25T03:47:19;9.50;99.90
1594;DHT22;790;47.000;16.084;2023-04-25T03:49:46;9.50;99.90
1594;DHT22;790;47.000;16.084;2023-04-25T03:52:15;9.50;99.90
1594;DHT22;790;47.000;16.084;2023-04-25T03:54:42;9.40;99.90
1594;DHT22;790;47.000;16.084;2023-04-25T03:57:10;9.40;99.90
1594;DHT22;790;47.000;16.084;2023-04-25T03:59:38;9.30;99.90
1594;DHT22;790;47.000;16.084;2023-04-25T04:02:05;9.30;99.90
1594;DHT22;790;47.000;16.084;2023-04-25T04:04:32;9.20;99.90
1594;DHT22;790;47.000;16.084;2023-04-25T04:06:59;9.10;99.90
1594;DHT22;790;47.000;16.084;2023-04-25T04:09:26;9.10;99.90
1594;DHT22;790;47.000;16.084;2023-04-25T04:11:54;8.90;99.90
1594;DHT22;790;47.000;16.084;2023-04-25T04:14:22;8.80;99.90
1594;DHT22;790;47.000;16.084;2023-04-25T04:16:51;8.70;99.90
1594;DHT22;790;47.000;16.084;2023-04-25T04:19:18;8.60;99.90
1594;DHT22;790;47.000;16.084;2023-04-25T04:21:46;8.60;99.90
1594;DHT22;790;47.000;16.084;2023-04-25T04:24:13;8.60;99.90
1594;DHT22;790;47.000;16.084;2023-04-25T04:26:40;8.50;99.90
1594;DHT22;790;47.000;16.084;2023-04-25T04:29:10;8.40;99.90
1594;DHT22;790;47.000;16.084;2023-04-25T04:31:39;8.40;99.90
1594;DHT22;790;47.000;16.084;2023-04-25T04:34:06;8.40;99.90
1594;DHT22;790;47.000;16.084;2023-04-25T04:36:33;8.40;99.90
1594;DHT22;790;47.000;16.084;2023-04-25T04:39:00;8.30;99.90
1594;DHT22;790;47.000;16.084;2023-04-25T04:41:28;8.30;99.90
1594;DHT22;790;47.000;16.084;2023-04-25T04:43:56;8.20;99.90
1594;DHT22;790;47.000;16.084;2023-04-25T04:46:23;8.20;99.90
1594;DHT22;790;47.000;16.084;2023-04-25T04:48:52;8.20;99.90
1594;DHT22;790;47.000;16.084;2023-04-25T04:51:22;8.20;99.90
1594;DHT22;790;47.000;16.084;2023-04-25T04:53:49;8.20;99.90
1594;DHT22;790;47.000;16.084;2023-04-25T04:56:16;8.30;99.90
1594;DHT22;790;47.000;16.084;2023-04-25T04:58:43;8.40;99.90
1594;DHT22;790;47.000;16.084;2023-04-25T05:01:10;8.40;99.90
1594;DHT22;790;47.000;16.084;2023-04-25T05:03:37;8.40;99.90
1594;DHT22;790;47.000;16.084;2023-04-25T05:06:06;8.40;99.90
1594;DHT22;790;47.000;16.084;2023-04-25T05:08:34;8.40;99.90
1594;DHT22;790;47.000;16.084;2023-04-25T05:11:01;8.40;99.90
1594;DHT22;790;47.000;16.084;2023-04-25T05:13:28;8.40;99.90
1594;DHT22;790;47.000;16.084;2023-04-25T05:15:55;8.40;99.90
1594;DHT22;790;47.000;16.084;2023-04-25T05:18:23;8.50;99.90
1594;DHT22;790;47.000;16.084;2023-04-25T05:20:50;8.50;99.90
1594;DHT22;790;47.000;16.084;2023-04-25T05:23:19;8.50;99.90
1594;DHT22;790;47.000;16.084;2023-04-25T05:25:46;8.60;99.90
1594;DHT22;790;47.000;16.084;2023-04-25T05:28:13;8.70;99.90
1594;DHT22;790;47.000;16.084;2023-04-25T05:30:41;8.80;99.90
1594;DHT22;790;47.000;16.084;2023-04-25T05:33:08;8.90;99.90
1594;DHT22;790;47.000;16.084;2023-04-25T05:35:35;9.00;99.90
1594;DHT22;790;47.000;16.084;2023-04-25T05:38:02;9.00;99.90
1594;DHT22;790;47.000;16.084;2023-04-25T05:40:32;9.10;99.90
1594;DHT22;790;47.000;16.084;2023-04-25T05:42:59;9.10;99.90
1594;DHT22;790;47.000;16.084;2023-04-25T05:45:26;9.20;99.90
1594;DHT22;790;47.000;16.084;2023-04-25T05:47:53;9.20;99.90
1594;DHT22;790;47.000;16.084;2023-04-25T05:50:20;9.20;99.90
1594;DHT22;790;47.000;16.084;2023-04-25T05:52:47;9.30;99.90
1594;DHT22;790;47.000;16.084;2023-04-25T05:55:15;9.30;99.90
1594;DHT22;790;47.000;16.084;2023-04-25T05:57:43;9.30;99.90
1594;DHT22;790;47.000;16.084;2023-04-25T06:00:12;9.50;99.90
1594;DHT22;790;47.000;16.084;2023-04-25T06:02:41;9.50;99.90
1594;DHT22;790;47.000;16.084;2023-04-25T06:05:09;9.50;99.90
1594;DHT22;790;47.000;16.084;2023-04-25T06:07:36;9.50;99.90
1594;DHT22;790;47.000;16.084;2023-04-25T06:10:04;9.60;99.90
1594;DHT22;790;47.000;16.084;2023-04-25T06:12:32;9.60;99.90
1594;DHT22;790;47.000;16.084;2023-04-25T06:15:01;9.60;99.90
1594;DHT22;790;47.000;16.084;2023-04-25T06:17:28;9.60;99.90
1594;DHT22;790;47.000;16.084;2023-04-25T06:19:55;9.70;99.90
1594;DHT22;790;47.000;16.084;2023-04-25T06:22:22;9.80;99.90
1594;DHT22;790;47.000;16.084;2023-04-25T06:24:49;9.90;99.90
1594;DHT22;790;47.000;16.084;2023-04-25T06:27:17;10.00;99.90
1594;DHT22;790;47.000;16.084;2023-04-25T06:29:44;10.00;99.90
1594;DHT22;790;47.000;16.084;2023-04-25T06:32:12;10.10;99.90
1594;DHT22;790;47.000;16.084;2023-04-25T06:34:39;10.20;99.90
1594;DHT22;790;47.000;16.084;2023-04-25T06:37:07;10.30;99.90
1594;DHT22;790;47.000;16.084;2023-04-25T06:39:34;10.30;99.90
1594;DHT22;790;47.000;16.084;2023-04-25T06:42:01;10.50;99.90
1594;DHT22;790;47.000;16.084;2023-04-25T06:44:29;10.60;99.90
1594;DHT22;790;47.000;16.084;2023-04-25T06:46:56;10.70;99.90
1594;DHT22;790;47.000;16.084;2023-04-25T06:49:25;10.70;99.90
1594;DHT22;790;47.000;16.084;2023-04-25T06:51:52;10.90;99.90
1594;DHT22;790;47.000;16.084;2023-04-25T06:54:19;11.10;99.90
1594;DHT22;790;47.000;16.084;2023-04-25T06:56:46;11.30;99.90
1594;DHT22;790;47.000;16.084;2023-04-25T06:59:13;11.50;99.90
1594;DHT22;790;47.000;16.084;2023-04-25T07:01:40;11.60;99.90
1594;DHT22;790;47.000;16.084;2023-04-25T07:04:08;11.70;99.90
1594;DHT22;790;47.000;16.084;2023-04-25T07:06:37;11.90;99.90
1594;DHT22;790;47.000;16.084;2023-04-25T07:09:08;12.00;99.90
1594;DHT22;790;47.000;16.084;2023-04-25T07:11:36;12.20;99.90
1594;DHT22;790;47.000;16.084;2023-04-25T07:14:03;12.30;99.90
1594;DHT22;790;47.000;16.084;2023-04-25T07:16:30;12.40;99.90
1594;DHT22;790;47.000;16.084;2023-04-25T07:18:58;12.50;99.90
1594;DHT22;790;47.000;16.084;2023-04-25T07:21:25;12.60;99.90
1594;DHT22;790;47.000;16.084;2023-04-25T07:23:54;12.60;99.90
1594;DHT22;790;47.000;16.084;2023-04-25T07:26:22;12.70;99.90
1594;DHT22;790;47.000;16.084;2023-04-25T07:28:50;12.80;99.90
1594;DHT22;790;47.000;16.084;2023-04-25T07:31:18;12.80;99.90
1594;DHT22;790;47.000;16.084;2023-04-25T07:33:45;12.80;99.90
1594;DHT22;790;47.000;16.084;2023-04-25T07:36:12;12.90;99.90
1594;DHT22;790;47.000;16.084;2023-04-25T07:38:40;13.00;99.90
1594;DHT22;790;47.000;16.084;2023-04-25T07:41:09;13.20;99.90
1594;DHT22;790;47.000;16.084;2023-04-25T07:43:36;13.20;99.90
1594;DHT22;790;47.000;16.084;2023-04-25T07:46:04;13.30;99.90
1594;DHT22;790;47.000;16.084;2023-04-25T07:48:32;13.40;99.90
1594;DHT22;790;47.000;16.084;2023-04-25T07:50:59;13.40;99.90
1594;DHT22;790;47.000;16.084;2023-04-25T07:53:26;13.50;99.90
1594;DHT22;790;47.000;16.084;2023-04-25T07:55:53;13.60;99.90
1594;DHT22;790;47.000;16.084;2023-04-25T07:58:22;13.70;99.90
1594;DHT22;790;47.000;16.084;2023-04-25T08:00:49;13.80;99.90
1594;DHT22;790;47.000;16.084;2023-04-25T08:03:16;13.80;99.90
1594;DHT22;790;47.000;16.084;2023-04-25T08:05:43;13.90;99.90
1594;DHT22;790;47.000;16.084;2023-04-25T08:08:11;13.90;99.90
1594;DHT22;790;47.000;16.084;2023-04-25T08:10:38;14.00;99.90
1594;DHT22;790;47.000;16.084;2023-04-25T08:13:05;14.10;99.90
1594;DHT22;790;47.000;16.084;2023-04-25T08:15:34;14.20;99.90
1594;DHT22;790;47.000;16.084;2023-04-25T08:18:01;14.30;99.90
1594;DHT22;790;47.000;16.084;2023-04-25T08:20:28;14.40;99.90
1594;DHT22;790;47.000;16.084;2023-04-25T08:22:56;14.40;99.90
1594;DHT22;790;47.000;16.084;2023-04-25T08:25:23;14.50;99.90
1594;DHT22;790;47.000;16.084;2023-04-25T08:27:50;14.70;99.90
1594;DHT22;790;47.000;16.084;2023-04-25T08:30:17;14.80;99.90
1594;DHT22;790;47.000;16.084;2023-04-25T08:32:46;14.90;99.90
1594;DHT22;790;47.000;16.084;2023-04-25T08:35:13;14.90;99.90
1594;DHT22;790;47.000;16.084;2023-04-25T08:37:42;15.00;99.90
1594;DHT22;790;47.000;16.084;2023-04-25T08:40:14;15.10;99.90
1594;DHT22;790;47.000;16.084;2023-04-25T08:42:41;15.30;99.90
1594;DHT22;790;47.000;16.084;2023-04-25T08:45:10;15.30;99.90
1594;DHT22;790;47.000;16.084;2023-04-25T08:47:38;15.30;99.90
1594;DHT22;790;47.000;16.084;2023-04-25T08:50:08;15.40;98.90
1594;DHT22;790;47.000;16.084;2023-04-25T08:52:37;15.60;99.80
1594;DHT22;790;47.000;16.084;2023-04-25T08:55:09;15.70;99.00
1594;DHT22;790;47.000;16.084;2023-04-25T08:57:40;15.80;98.70
1594;DHT22;790;47.000;16.084;2023-04-25T09:00:09;15.70;95.40
1594;DHT22;790;47.000;16.084;2023-04-25T09:02:37;15.70;99.40
1594;DHT22;790;47.000;16.084;2023-04-25T09:05:08;15.80;99.60
1594;DHT22;790;47.000;16.084;2023-04-25T09:07:36;16.00;99.90
1594;DHT22;790;47.000;16.084;2023-04-25T09:10:04;16.20;98.80
1594;DHT22;790;47.000;16.084;2023-04-25T09:12:32;15.90;98.50
1594;DHT22;790;47.000;16.084;2023-04-25T09:15:07;16.00;98.70
1594;DHT22;790;47.000;16.084;2023-04-25T09:17:34;16.20;98.50
1594;DHT22;790;47.000;16.084;2023-04-25T09:20:09;16.20;95.70
1594;DHT22;790;47.000;16.084;2023-04-25T09:22:38;16.10;96.60
1594;DHT22;790;47.000;16.084;2023-04-25T09:25:09;16.20;96.70
1594;DHT22;790;47.000;16.084;2023-04-25T09:27:36;16.20;97.70
1594;DHT22;790;47.000;16.084;2023-04-25T09:30:04;16.20;97.30
1594;DHT22;790;47.000;16.084;2023-04-25T09:32:31;16.20;99.00
1594;DHT22;790;47.000;16.084;2023-04-25T09:34:59;16.40;99.90
1594;DHT22;790;47.000;16.084;2023-04-25T09:37:29;16.40;97.00
1594;DHT22;790;47.000;16.084;2023-04-25T09:39:58;16.40;95.40
1594;DHT22;790;47.000;16.084;2023-04-25T09:42:30;16.30;96.40
1594;DHT22;790;47.000;16.084;2023-04-25T09:44:58;16.10;93.30
1594;DHT22;790;47.000;16.084;2023-04-25T09:47:27;16.10;94.60
1594;DHT22;790;47.000;16.084;2023-04-25T09:49:55;16.20;94.50
1594;DHT22;790;47.000;16.084;2023-04-25T09:52:24;16.40;95.40
1594;DHT22;790;47.000;16.084;2023-04-25T09:54:53;16.40;92.50
1594;DHT22;790;47.000;16.084;2023-04-25T09:57:22;16.40;93.50
1594;DHT22;790;47.000;16.084;2023-04-25T09:59:51;16.50;93.80
1594;DHT22;790;47.000;16.084;2023-04-25T10:02:19;16.60;96.10
1594;DHT22;790;47.000;16.084;2023-04-25T10:04:49;16.80;96.70
1594;DHT22;790;47.000;16.084;2023-04-25T10:07:19;17.10;97.20
1594;DHT22;790;47.000;16.084;2023-04-25T10:09:48;17.30;96.10
1594;DHT22;790;47.000;16.084;2023-04-25T10:12:18;17.20;93.70
1594;DHT22;790;47.000;16.084;2023-04-25T10:14:46;17.20;93.40
1594;DHT22;790;47.000;16.084;2023-04-25T10:17:15;17.20;97.50
1594;DHT22;790;47.000;16.084;2023-04-25T10:19:44;17.20;93.30
1594;DHT22;790;47.000;16.084;2023-04-25T10:22:14;16.90;93.80
1594;DHT22;790;47.000;16.084;2023-04-25T10:24:44;17.00;96.20
1594;DHT22;790;47.000;16.084;2023-04-25T10:27:13;17.30;96.90
1594;DHT22;790;47.000;16.084;2023-04-25T10:29:42;17.50;95.80
1594;DHT22;790;47.000;16.084;2023-04-25T10:32:10;17.70;92.70
1594;DHT22;790;47.000;16.084;2023-04-25T10:34:39;17.70;96.00
1594;DHT22;790;47.000;16.084;2023-04-25T10:37:09;17.70;92.90
1594;DHT22;790;47.000;16.084;2023-04-25T10:39:39;17.60;91.00
1594;DHT22;790;47.000;16.084;2023-04-25T10:42:07;17.60;90.80
1594;DHT22;790;47.000;16.084;2023-04-25T10:44:37;17.60;92.40
1594;DHT22;790;47.000;16.084;2023-04-25T10:47:07;17.50;90.30
1594;DHT22;790;47.000;16.084;2023-04-25T10:49:36;17.40;90.30
1594;DHT22;790;47.000;16.084;2023-04-25T10:52:18;17.50;93.50
1594;DHT22;790;47.000;16.084;2023-04-25T10:54:53;17.80;92.10
1594;DHT22;790;47.000;16.084;2023-04-25T10:57:31;17.90;92.40
1594;DHT22;790;47.000;16.084;2023-04-25T11:00:01;18.00;93.40
1594;DHT22;790;47.000;16.084;2023-04-25T11:02:32;18.00;91.50
1594;DHT22;790;47.000;16.084;2023-04-25T11:05:04;18.00;92.10
1594;DHT22;790;47.000;16.084;2023-04-25T11:07:37;18.10;92.00
1594;DHT22;790;47.000;16.084;2023-04-25T11:10:06;18.30;95.20
1594;DHT22;790;47.000;16.084;2023-04-25T11:12:33;18.40;94.60
1594;DHT22;790;47.000;16.084;2023-04-25T11:15:02;18.40;93.00
1594;DHT22;790;47.000;16.084;2023-04-25T11:17:30;18.50;92.80
1594;DHT22;790;47.000;16.084;2023-04-25T11:19:59;18.70;91.60
1594;DHT22;790;47.000;16.084;2023-04-25T11:22:27;18.60;93.30
1594;DHT22;790;47.000;16.084;2023-04-25T11:24:54;18.40;90.40
1594;DHT22;790;47.000;16.084;2023-04-25T11:27:21;18.60;89.80
1594;DHT22;790;47.000;16.084;2023-04-25T11:29:50;18.70;92.70
1594;DHT22;790;47.000;16.084;2023-04-25T11:32:18;18.70;88.40
1594;DHT22;790;47.000;16.084;2023-04-25T11:34:46;18.60;92.00
1594;DHT22;790;47.000;16.084;2023-04-25T11:37:15;18.60;91.10
1594;DHT22;790;47.000;16.084;2023-04-25T11:39:44;18.80;94.80
1594;DHT22;790;47.000;16.084;2023-04-25T11:42:12;18.90;93.30
1594;DHT22;790;47.000;16.084;2023-04-25T11:44:39;19.00;90.50
1594;DHT22;790;47.000;16.084;2023-04-25T11:47:07;18.90;92.20
1594;DHT22;790;47.000;16.084;2023-04-25T11:49:35;18.70;89.70
1594;DHT22;790;47.000;16.084;2023-04-25T11:52:02;18.50;91.90
1594;DHT22;790;47.000;16.084;2023-04-25T11:54:31;18.10;87.90
1594;DHT22;790;47.000;16.084;2023-04-25T11:57:01;17.90;91.00
1594;DHT22;790;47.000;16.084;2023-04-25T11:59:28;17.80;92.20
1594;DHT22;790;47.000;16.084;2023-04-25T12:01:56;17.70;93.10
1594;DHT22;790;47.000;16.084;2023-04-25T12:04:25;17.70;92.20
1594;DHT22;790;47.000;16.084;2023-04-25T12:06:53;17.60;92.90
1594;DHT22;790;47.000;16.084;2023-04-25T12:09:28;17.50;92.00
1594;DHT22;790;47.000;16.084;2023-04-25T12:11:58;17.50;93.80
1594;DHT22;790;47.000;16.084;2023-04-25T12:14:29;17.70;94.00
1594;DHT22;790;47.000;16.084;2023-04-25T12:16:58;17.80;92.30
1594;DHT22;790;47.000;16.084;2023-04-25T12:19:26;17.80;92.70
1594;DHT22;790;47.000;16.084;2023-04-25T12:21:53;17.60;92.20
1594;DHT22;790;47.000;16.084;2023-04-25T12:24:22;17.70;95.00
1594;DHT22;790;47.000;16.084;2023-04-25T12:26:52;17.70;93.50
1594;DHT22;790;47.000;16.084;2023-04-25T12:29:22;17.70;93.70
1594;DHT22;790;47.000;16.084;2023-04-25T12:31:52;17.60;92.60
1594;DHT22;790;47.000;16.084;2023-04-25T12:34:21;17.60;93.20
1594;DHT22;790;47.000;16.084;2023-04-25T12:36:49;17.70;91.70
1594;DHT22;790;47.000;16.084;2023-04-25T12:39:17;17.90;91.50
1594;DHT22;790;47.000;16.084;2023-04-25T12:41:45;17.90;92.10
1594;DHT22;790;47.000;16.084;2023-04-25T12:44:12;18.00;92.20
1594;DHT22;790;47.000;16.084;2023-04-25T12:46:41;18.30;93.10
1594;DHT22;790;47.000;16.084;2023-04-25T12:49:09;18.40;93.50
1594;DHT22;790;47.000;16.084;2023-04-25T12:51:36;18.60;93.00
1594;DHT22;790;47.000;16.084;2023-04-25T12:54:05;18.70;93.90
1594;DHT22;790;47.000;16.084;2023-04-25T12:56:33;18.70;92.00
1594;DHT22;790;47.000;16.084;2023-04-25T12:59:01;18.80;91.70
1594;DHT22;790;47.000;16.084;2023-04-25T13:01:29;18.60;91.10
1594;DHT22;790;47.000;16.084;2023-04-25T13:03:59;18.50;92.20
1594;DHT22;790;47.000;16.084;2023-04-25T13:06:27;18.50;90.70
1594;DHT22;790;47.000;16.084;2023-04-25T13:08:55;18.40;91.30
1594;DHT22;790;47.000;16.084;2023-04-25T13:11:22;18.20;90.70
1594;DHT22;790;47.000;16.084;2023-04-25T13:13:50;18.00;88.00
1594;DHT22;790;47.000;16.084;2023-04-25T13:16:19;18.00;90.60
1594;DHT22;790;47.000;16.084;2023-04-25T13:18:48;18.00;91.40
1594;DHT22;790;47.000;16.084;2023-04-25T13:21:16;18.10;91.50
1594;DHT22;790;47.000;16.084;2023-04-25T13:23:43;18.10;91.20
1594;DHT22;790;47.000;16.084;2023-04-25T13:26:12;17.90;88.00
1594;DHT22;790;47.000;16.084;2023-04-25T13:28:39;17.90;91.20
1594;DHT22;790;47.000;16.084;2023-04-25T13:31:07;17.90;91.40
1594;DHT22;790;47.000;16.084;2023-04-25T13:33:34;18.00;90.40
1594;DHT22;790;47.000;16.084;2023-04-25T13:36:03;18.10;87.50
1594;DHT22;790;47.000;16.084;2023-04-25T13:38:32;18.00;91.60
1594;DHT22;790;47.000;16.084;2023-04-25T13:40:59;17.90;91.10
1594;DHT22;790;47.000;16.084;2023-04-25T13:43:26;18.00;87.70
1594;DHT22;790;47.000;16.084;2023-04-25T13:45:55;18.00;88.20
1594;DHT22;790;47.000;16.084;2023-04-25T13:48:23;18.00;86.10
1594;DHT22;790;47.000;16.084;2023-04-25T13:50:53;18.10;89.70
1594;DHT22;790;47.000;16.084;2023-04-25T13:53:20;18.10;86.70
1594;DHT22;790;47.000;16.084;2023-04-25T13:55:48;18.00;88.10
1594;DHT22;790;47.000;16.084;2023-04-25T13:58:16;18.00;85.70
1594;DHT22;790;47.000;16.084;2023-04-25T14:00:43;18.00;84.50
1594;DHT22;790;47.000;16.084;2023-04-25T14:03:12;17.90;87.70
1594;DHT22;790;47.000;16.084;2023-04-25T14:05:39;17.80;90.10
1594;DHT22;790;47.000;16.084;2023-04-25T14:08:07;17.90;90.70
1594;DHT22;790;47.000;16.084;2023-04-25T14:10:37;17.90;86.90
1594;DHT22;790;47.000;16.084;2023-04-25T14:13:07;17.80;90.10
1594;DHT22;790;47.000;16.084;2023-04-25T14:15:35;17.70;90.40
1594;DHT22;790;47.000;16.084;2023-04-25T14:18:03;17.80;88.60
1594;DHT22;790;47.000;16.084;2023-04-25T14:20:31;17.80;91.00
1594;DHT22;790;47.000;16.084;2023-04-25T14:22:58;17.70;91.00
1594;DHT22;790;47.000;16.084;2023-04-25T14:25:27;17.60;88.40
1594;DHT22;790;47.000;16.084;2023-04-25T14:27:55;17.50;89.90
1594;DHT22;790;47.000;16.084;2023-04-25T14:30:23;17.60;91.90
1594;DHT22;790;47.000;16.084;2023-04-25T14:32:50;17.60;90.70
1594;DHT22;790;47.000;16.084;2023-04-25T14:35:18;17.60;87.00
1594;DHT22;790;47.000;16.084;2023-04-25T14:37:46;17.60;87.60
1594;DHT22;790;47.000;16.084;2023-04-25T14:40:13;17.80;90.30
1594;DHT22;790;47.000;16.084;2023-04-25T14:42:42;18.00;89.70
1594;DHT22;790;47.000;16.084;2023-04-25T14:45:10;18.20;92.30
1594;DHT22;790;47.000;16.084;2023-04-25T14:47:39;18.20;89.10
1594;DHT22;790;47.000;16.084;2023-04-25T14:50:09;18.10;89.30
1594;DHT22;790;47.000;16.084;2023-04-25T14:52:36;17.90;90.50
1594;DHT22;790;47.000;16.084;2023-04-25T14:55:04;17.90;90.40
1594;DHT22;790;47.000;16.084;2023-04-25T14:57:33;17.90;92.50
1594;DHT22;790;47.000;16.084;2023-04-25T15:00:00;17.90;91.70
1594;DHT22;790;47.000;16.084;2023-04-25T15:02:30;17.90;92.70
1594;DHT22;790;47.000;16.084;2023-04-25T15:04:59;17.70;92.90
1594;DHT22;790;47.000;16.084;2023-04-25T15:07:27;17.60;93.10
1594;DHT22;790;47.000;16.084;2023-04-25T15:09:54;17.30;93.80
1594;DHT22;790;47.000;16.084;2023-04-25T15:12:22;17.10;93.80
1594;DHT22;790;47.000;16.084;2023-04-25T15:14:51;17.00;94.40
1594;DHT22;790;47.000;16.084;2023-04-25T15:17:18;16.90;95.00
1594;DHT22;790;47.000;16.084;2023-04-25T15:19:45;16.90;96.20
1594;DHT22;790;47.000;16.084;2023-04-25T15:22:14;16.80;96.00
1594;DHT22;790;47.000;16.084;2023-04-25T15:24:41;16.60;96.60
1594;DHT22;790;47.000;16.084;2023-04-25T15:27:11;16.40;95.90
1594;DHT22;790;47.000;16.084;2023-04-25T15:29:39;16.10;96.30
1594;DHT22;790;47.000;16.084;2023-04-25T15:32:08;15.90;96.30
1594;DHT22;790;47.000;16.084;2023-04-25T15:34:37;15.80;96.60
1594;DHT22;790;47.000;16.084;2023-04-25T15:37:05;15.80;99.90
1594;DHT22;790;47.000;16.084;2023-04-25T15:39:33;15.70;98.40
1594;DHT22;790;47.000;16.084;2023-04-25T15:42:00;15.70;99.10
1594;DHT22;790;47.000;16.084;2023-04-25T15:44:28;15.60;99.90
1594;DHT22;790;47.000;16.084;2023-04-25T15:46:56;15.60;99.90
1594;DHT22;790;47.000;16.084;2023-04-25T15:49:23;15.50;99.90
1594;DHT22;790;47.000;16.084;2023-04-25T15:51:50;15.40;99.90
1594;DHT22;790;47.000;16.084;2023-04-25T15:54:17;15.50;99.90
1594;DHT22;790;47.000;16.084;2023-04-25T15:56:46;15.50;99.90
1594;DHT22;790;47.000;16.084;2023-04-25T15:59:13;15.40;99.90
1594;DHT22;790;47.000;16.084;2023-04-25T16:01:41;15.40;99.90
1594;DHT22;790;47.000;16.084;2023-04-25T16:04:09;15.40;99.90
1594;DHT22;790;47.000;16.084;2023-04-25T16:06:36;15.50;99.90
1594;DHT22;790;47.000;16.084;2023-04-25T16:09:04;15.40;99.90